createdAt,value
2022-10-11T00:02:36.638Z,93.61
2022-10-11T00:07:39.062Z,92.97
2022-10-11T00:12:41.153Z,92.90
2022-10-11T00:17:44.906Z,93.02
2022-10-11T00:22:46.806Z,93.30
2022-10-11T00:27:48.764Z,93.02
2022-10-11T00:32:50.704Z,92.53
2022-10-11T00:37:52.578Z,91.93
2022-10-11T00:42:54.403Z,92.30
2022-10-11T00:48:11.689Z,91.79
2022-10-11T00:53:14.115Z,91.17
2022-10-11T00:58:17.039Z,90.60
2022-10-11T01:03:20.405Z,90.32
2022-10-11T01:08:23.286Z,90.64
2022-10-11T01:13:43.922Z,90.32
2022-10-11T01:18:45.675Z,90.28
2022-10-11T01:23:59.427Z,90.02
2022-10-11T01:29:23.629Z,90.48
2022-10-11T01:34:33.321Z,90.33
2022-10-11T01:39:42.881Z,90.71
2022-10-11T01:44:47.118Z,90.24
2022-10-11T01:49:57.487Z,90.42
2022-10-11T01:55:11.558Z,90.95
2022-10-11T02:00:17.177Z,90.66
2022-10-11T02:05:34.260Z,90.93
2022-10-11T02:10:54.579Z,90.80
2022-10-11T02:15:59.043Z,90.82
2022-10-11T02:21:04.681Z,90.47
2022-10-11T02:26:07.613Z,90.74
2022-10-11T02:31:11.494Z,90.83
2022-10-11T02:36:31.578Z,90.78
2022-10-11T02:41:39.039Z,90.85
2022-10-11T02:46:41.810Z,90.56
2022-10-11T02:51:43.690Z,91.12
2022-10-11T02:56:45.484Z,90.80
2022-10-11T03:01:47.504Z,90.85
2022-10-11T03:06:49.404Z,90.85
2022-10-11T03:11:51.434Z,90.48
2022-10-11T03:16:53.330Z,90.28
2022-10-11T03:21:55.554Z,90.04
2022-10-11T03:26:57.395Z,90.07
2022-10-11T03:31:59.525Z,89.83
2022-10-11T03:37:01.459Z,89.71
2022-10-11T03:42:03.313Z,89.50
2022-10-11T03:47:07.683Z,88.82
2022-10-11T03:52:09.489Z,88.72
2022-10-11T03:57:11.432Z,88.67
2022-10-11T04:02:13.384Z,89.04
2022-10-11T04:07:15.436Z,88.87
2022-10-11T04:12:17.228Z,88.66
2022-10-11T04:17:19.095Z,88.50
2022-10-11T04:22:21.060Z,88.29
2022-10-11T04:27:22.964Z,88.83
2022-10-11T04:32:24.817Z,89.67
2022-10-11T04:37:26.675Z,90.25
2022-10-11T04:42:28.585Z,90.47
2022-10-11T04:47:30.456Z,90.55
2022-10-11T04:52:32.234Z,90.53
2022-10-11T04:57:34.287Z,90.77
2022-10-11T05:02:36.373Z,91.64
2022-10-11T05:07:38.243Z,93.13
2022-10-11T05:12:40.070Z,93.44
2022-10-11T05:17:41.914Z,94.56
2022-10-11T05:22:44.378Z,94.88
2022-10-11T05:27:46.208Z,94.17
2022-10-11T05:32:48.072Z,94.17
2022-10-11T05:37:49.997Z,93.97
2022-10-11T05:42:51.822Z,94.78
2022-10-11T05:47:53.641Z,94.73
2022-10-11T05:52:55.853Z,94.89
2022-10-11T05:57:57.869Z,94.11
2022-10-11T06:02:59.777Z,94.22
2022-10-11T06:08:02.515Z,94.73
2022-10-11T06:13:05.200Z,95.16
2022-10-11T06:18:07.552Z,95.02
2022-10-11T06:23:09.437Z,96.03
2022-10-11T06:28:11.378Z,95.31
2022-10-11T06:33:13.364Z,94.63
2022-10-11T06:38:15.717Z,95.99
2022-10-11T06:43:17.715Z,95.49
2022-10-11T06:48:19.598Z,95.79
2022-10-11T06:53:21.427Z,95.77
2022-10-11T06:58:23.452Z,96.44
2022-10-11T07:03:25.479Z,95.12
2022-10-11T07:08:27.634Z,95.95
2022-10-11T07:13:29.769Z,95.54
2022-10-11T07:18:32.270Z,95.38
2022-10-11T07:23:34.810Z,95.72
2022-10-11T07:28:37.737Z,95.56
2022-10-11T07:33:39.819Z,95.00
2022-10-11T07:38:44.146Z,94.96
2022-10-11T07:43:50.805Z,95.37
2022-10-11T07:48:53.038Z,94.43
2022-10-11T07:53:56.556Z,93.65
2022-10-11T07:59:00.596Z,93.90
2022-10-11T08:04:02.382Z,93.19
2022-10-11T08:09:05.630Z,92.63
2022-10-11T08:14:09.213Z,92.22
2022-10-11T08:19:11.286Z,90.32
2022-10-11T08:24:14.202Z,89.61
2022-10-11T08:29:16.168Z,89.25
2022-10-11T08:34:18.090Z,88.64
2022-10-11T08:39:20.028Z,86.50
2022-10-11T08:45:08.994Z,85.01
2022-10-11T08:50:06.418Z,85.27
2022-10-11T08:55:25.702Z,86.97
2022-10-11T09:00:31.867Z,86.32
2022-10-11T09:06:07.981Z,84.68
2022-10-11T09:11:10.179Z,83.86
2022-10-11T09:16:22.646Z,84.18
2022-10-11T09:21:30.753Z,83.54
2022-10-11T09:26:39.918Z,82.33
2022-10-11T09:31:47.769Z,81.99
2022-10-11T09:36:55.667Z,80.50
2022-10-11T09:42:07.951Z,79.94
2022-10-11T09:47:18.835Z,78.88
2022-10-11T09:52:22.710Z,77.40
2022-10-11T09:57:28.644Z,75.63
2022-10-11T10:02:39.366Z,73.01
2022-10-11T10:08:10.077Z,73.97
2022-10-11T10:13:30.298Z,72.27
2022-10-11T10:18:47.813Z,73.65
2022-10-11T10:23:54.892Z,72.42
2022-10-11T10:29:05.552Z,68.86
2022-10-11T10:34:29.050Z,69.21
2022-10-11T10:39:48.714Z,68.81
2022-10-11T10:44:54.332Z,69.50
2022-10-11T10:50:17.250Z,66.84
2022-10-11T10:55:34.709Z,68.42
2022-10-11T11:00:52.638Z,66.55
2022-10-11T11:06:02.222Z,66.24
2022-10-11T11:11:28.978Z,64.88
2022-10-11T11:16:42.738Z,65.76
2022-10-11T11:22:00.686Z,63.80
2022-10-11T11:27:17.620Z,66.71
2022-10-11T11:32:23.199Z,65.70
2022-10-11T11:37:57.931Z,64.60
2022-10-11T11:43:12.894Z,65.63
2022-10-11T11:48:25.329Z,64.68
2022-10-11T11:54:06.238Z,63.47
2022-10-11T11:59:24.570Z,64.84
2022-10-11T12:04:32.059Z,62.54
2022-10-11T12:09:36.637Z,62.74
2022-10-11T12:14:42.232Z,62.71
2022-10-11T12:20:05.170Z,64.11
2022-10-11T12:25:11.246Z,62.31
2022-10-11T12:30:53.447Z,61.29
2022-10-11T12:35:55.325Z,59.42
2022-10-11T12:41:09.142Z,59.76
2022-10-11T12:46:29.905Z,61.88
2022-10-11T12:51:41.583Z,58.92
2022-10-11T12:56:43.378Z,60.32
2022-10-11T13:02:03.968Z,59.58
2022-10-11T13:07:14.412Z,60.16
2022-10-11T13:12:19.282Z,62.24
2022-10-11T13:17:32.333Z,59.88
2022-10-11T13:22:40.304Z,59.74
2022-10-11T13:27:42.630Z,56.19
2022-10-11T13:32:45.623Z,55.29
2022-10-11T13:37:48.739Z,54.88
2022-10-11T13:42:52.269Z,54.85
2022-10-11T13:47:56.159Z,56.29
2022-10-11T13:53:23.394Z,56.77
2022-10-11T13:58:32.945Z,56.45
2022-10-11T14:03:46.430Z,57.01
2022-10-11T14:08:50.736Z,57.84
2022-10-11T14:13:52.594Z,57.94
2022-10-11T14:19:00.375Z,58.99
2022-10-11T14:24:10.726Z,57.47
2022-10-11T14:29:19.094Z,58.47
2022-10-11T14:34:22.714Z,58.18
2022-10-11T14:39:27.942Z,56.77
2022-10-11T14:44:29.811Z,54.84
2022-10-11T14:49:33.708Z,55.77
2022-10-11T14:54:35.712Z,56.48
2022-10-11T14:59:38.512Z,59.94
2022-10-11T15:04:40.561Z,61.96
2022-10-11T15:09:42.620Z,62.89
2022-10-11T15:14:44.841Z,63.59
2022-10-11T15:19:46.817Z,64.19
2022-10-11T15:24:51.680Z,64.84
2022-10-11T15:29:53.811Z,65.72
2022-10-11T15:34:55.649Z,67.22
2022-10-11T15:39:57.533Z,67.55
2022-10-11T15:44:59.406Z,68.31
2022-10-11T15:50:01.392Z,67.36
2022-10-11T15:55:03.497Z,67.47
2022-10-11T16:00:05.840Z,68.21
2022-10-11T16:05:13.591Z,68.32
2022-10-11T16:10:15.736Z,68.51
2022-10-11T16:15:17.689Z,69.63
2022-10-11T16:20:24.808Z,69.96
2022-10-11T16:25:26.785Z,71.24
2022-10-11T16:30:29.061Z,71.78
2022-10-11T16:35:32.655Z,72.31
2022-10-11T16:40:35.992Z,73.53
2022-10-11T16:45:38.010Z,73.71
2022-10-11T16:50:39.980Z,73.53
2022-10-11T16:55:41.975Z,73.52
2022-10-11T17:00:45.015Z,73.04
2022-10-11T17:05:47.025Z,73.31
2022-10-11T17:10:57.759Z,73.37
2022-10-11T17:16:00.164Z,74.58
2022-10-11T17:21:08.403Z,74.68
2022-10-11T17:26:18.915Z,75.47
2022-10-11T17:31:21.848Z,75.83
2022-10-11T17:36:34.803Z,76.05
2022-10-11T17:41:37.272Z,75.32
2022-10-11T17:46:39.726Z,75.38
2022-10-11T17:51:42.565Z,75.88
2022-10-11T17:56:44.551Z,75.87
2022-10-11T18:01:46.707Z,75.51
2022-10-11T18:06:49.048Z,76.07
2022-10-11T18:11:51.255Z,75.33
2022-10-11T18:16:53.123Z,76.04
2022-10-11T18:21:55.207Z,76.37
2022-10-11T18:26:57.242Z,74.64
2022-10-11T18:31:59.244Z,75.62
2022-10-11T18:37:01.167Z,75.87
2022-10-11T18:42:06.998Z,75.33
2022-10-11T18:47:08.887Z,75.79
2022-10-11T18:52:10.863Z,75.53
2022-10-11T18:57:12.830Z,75.87
2022-10-11T19:02:14.710Z,74.78
2022-10-11T19:07:16.597Z,74.23
2022-10-11T19:12:18.543Z,73.71
2022-10-11T19:17:23.022Z,73.71
2022-10-11T19:22:38.409Z,73.61
2022-10-11T19:27:47.118Z,73.27
2022-10-11T19:32:49.043Z,72.76
2022-10-11T19:37:50.893Z,72.58
2022-10-11T19:42:52.706Z,72.39
2022-10-11T19:47:54.573Z,72.30
2022-10-11T19:52:56.401Z,71.96
2022-10-11T19:57:59.365Z,71.27
2022-10-11T20:03:02.266Z,71.08
2022-10-11T20:08:04.179Z,70.91
2022-10-11T20:13:11.723Z,70.21
2022-10-11T20:18:13.713Z,69.86
2022-10-11T20:23:18.112Z,69.79
2022-10-11T20:28:20.315Z,69.90
2022-10-11T20:33:23.002Z,70.32
2022-10-11T20:38:25.011Z,70.95
2022-10-11T20:43:26.957Z,70.91
2022-10-11T20:48:31.598Z,70.95
2022-10-11T20:53:34.848Z,70.90
2022-10-11T20:58:37.688Z,70.99
2022-10-11T21:03:40.050Z,71.00
2022-10-11T21:08:42.116Z,71.59
2022-10-11T21:13:44.551Z,72.26
2022-10-11T21:18:50.975Z,71.97
2022-10-11T21:24:00.651Z,72.27
2022-10-11T21:29:04.286Z,73.45
2022-10-11T21:34:07.488Z,73.45
2022-10-11T21:39:09.291Z,73.81
2022-10-11T21:44:11.126Z,74.00
2022-10-11T21:49:13.061Z,75.02
2022-10-11T21:54:15.063Z,75.15
2022-10-11T21:59:17.340Z,75.64
2022-10-11T22:04:20.033Z,76.62
2022-10-11T22:09:21.995Z,76.97
2022-10-11T22:14:24.942Z,77.86
2022-10-11T22:19:26.799Z,78.08
2022-10-11T22:24:29.632Z,77.72
2022-10-11T22:29:34.399Z,78.44
2022-10-11T22:34:36.681Z,78.98
2022-10-11T22:39:38.867Z,78.81
2022-10-11T22:44:40.720Z,79.01
2022-10-11T22:49:42.762Z,79.13
2022-10-11T22:54:44.711Z,79.47
2022-10-11T22:59:46.576Z,80.18
2022-10-11T23:04:48.763Z,80.04
2022-10-11T23:09:50.621Z,80.03
2022-10-11T23:14:52.417Z,80.11
2022-10-11T23:19:54.220Z,80.26
2022-10-11T23:24:56.194Z,80.55
2022-10-11T23:29:58.459Z,80.71
2022-10-11T23:35:00.517Z,80.92
2022-10-11T23:40:02.444Z,81.25
2022-10-11T23:45:05.036Z,80.99
2022-10-11T23:50:08.069Z,81.30
2022-10-11T23:55:09.962Z,81.31
